Latest Weather Observations for Launceston

IDT60801

Issued at 9:05 am EST Thursday 18 September 2014 (issued every 30 minutes, with the page automatically refreshed every 10 minutes)

About weather observations | Map of weather stations | Latest weather observations for TAS | Other Formats
Station Details ID: 091237 Name: LAUNCESTON (TI TREE BEND) Lat: -41.42 Lon: 147.12 Height: 5.0 m
Data from the previous 72 hours. | See also: Recent months at Launceston
Date/Time
EST
Temp
°C
App
Temp
°C
Dew
Point
Rel
Hum
%
Delta-T
°C
Wind Press
QNH
hPa
Press
MSL
hPa
Rain
since 9 am
mm
Dir
 
Spd
km/h
Gust
km/h
Spd
kts
Gust
kts
18/09:00am 8.3 6.1 3.4 71 2.1 W 4 7 2 4 - - 0.0
18/08:30am 7.5 5.8 4.1 79 1.5 N 2 6 1 3 - - 0.0
18/08:00am 6.3 4.9 3.5 82 1.2 CALM 0 0 0 0 - - 0.0
18/07:30am 5.6 3.4 3.3 85 1.0 N 4 6 2 3 - - 0.0
18/07:00am 4.8 2.9 2.7 86 0.9 WNW 2 7 1 4 - - 0.0
18/06:30am 4.8 2.5 2.8 87 0.8 N 4 6 2 3 - - 0.0
18/06:00am 4.1 2.1 2.1 87 0.8 SSE 2 6 1 3 - - 0.0
18/05:30am 4.3 1.5 2.2 86 0.8 S 6 11 3 6 - - 0.0
18/05:00am 3.5 0.7 2.2 91 0.5 W 6 7 3 4 - - 0.0
18/04:30am 3.1 0.2 1.3 88 0.7 NNW 6 9 3 5 - - 0.0
18/04:00am 2.9 -0.2 1.6 91 0.5 S 7 15 4 8 - - 0.0
18/03:30am 3.0 0.5 1.5 90 0.6 S 4 7 2 4 - - 0.0
18/03:00am 2.7 0.1 1.1 89 0.6 N 4 11 2 6 - - 0.0
18/02:30am 2.8 0.3 1.3 90 0.6 E 4 9 2 5 - - 0.0
18/02:00am 3.4 1.7 1.6 88 0.7 CALM 0 4 0 2 - - 0.0
18/01:30am 4.1 2.4 1.6 84 1.0 CALM 0 0 0 0 - - 0.0
18/01:00am 4.8 3.0 1.5 79 1.3 CALM 0 2 0 1 - - 0.0
18/12:30am 6.0 3.1 1.2 71 1.9 NNW 6 7 3 4 - - 0.0
18/12:00am 6.5 3.3 1.0 68 2.2 WNW 7 11 4 6 - - 0.0
 
Date/Time
EST
Temp
°C
App
Temp
°C
Dew
Point
Rel
Hum
%
Delta-T
°C
Wind Press
QNH
hPa
Press
MSL
hPa
Rain
since 9 am
mm
Dir
 
Spd
km/h
Gust
km/h
Spd
kts
Gust
kts
17/11:30pm 6.7 3.7 0.8 66 2.3 W 6 11 3 6 - - 0.0
17/11:00pm 6.3 3.3 1.0 69 2.1 WSW 6 15 3 8 - - 0.0
17/10:30pm 6.0 3.1 1.2 71 1.9 NW 6 11 3 6 - - 0.0
17/10:00pm 5.9 2.7 0.9 70 2.0 W 7 9 4 5 - - 0.0
17/09:30pm 5.7 2.7 1.1 72 1.8 WNW 6 13 3 7 - - 0.0
17/09:00pm 6.0 3.8 0.8 69 2.0 SW 2 4 1 2 - - 0.0
17/08:30pm 7.6 4.0 0.3 60 2.9 N 9 13 5 7 - - 0.0
17/08:00pm 7.0 3.9 1.1 66 2.4 N 7 9 4 5 - - 0.0
17/07:30pm 6.8 3.8 0.5 64 2.5 W 6 7 3 4 - - 0.0
17/07:00pm 8.5 6.1 -0.5 53 3.5 ESE 2 6 1 3 - - 0.0
17/06:30pm 9.3 5.9 -1.7 46 4.2 S 6 13 3 7 - - 0.0
17/06:00pm 9.9 4.0 -2.1 43 4.6 SW 19 32 10 17 - - 0.0
17/05:30pm 10.5 3.8 -1.2 44 4.6 SSW 24 44 13 24 - - 0.0
17/05:00pm 11.4 6.5 -0.4 44 4.8 S 15 26 8 14 - - 0.0
17/04:30pm 12.0 6.3 -0.8 41 5.2 SSW 19 28 10 15 - - 0.0
17/04:00pm 12.0 6.1 -1.9 38 5.5 WSW 19 30 10 16 - - 0.0
17/03:30pm 12.6 5.3 -0.3 41 5.3 SSW 28 33 15 18 - - 0.0
17/03:00pm 12.0 5.5 0.1 44 4.9 SSW 24 37 13 20 - - 0.0
17/02:30pm 12.4 7.3 2.8 52 4.2 WNW 19 30 10 16 - - 0.0
17/02:00pm 12.9 9.0 3.3 52 4.3 WSW 13 19 7 10 - - 0.0
17/01:30pm 11.2 7.6 2.8 56 3.6 WSW 11 19 6 10 - - 0.0
17/01:00pm 12.3 7.6 3.3 54 4.0 WNW 17 30 9 16 - - 0.0
17/12:30pm 12.5 8.4 4.2 57 3.8 WNW 15 30 8 16 - - 0.0
17/12:00pm 11.3 7.5 6.0 70 2.5 NW 15 22 8 12 - - 0.0
17/11:30am 11.4 8.1 6.3 71 2.4 NW 13 22 7 12 - - 0.0
17/11:00am 11.9 8.3 6.6 70 2.5 NW 15 26 8 14 - - 0.0
17/10:30am 11.9 7.6 7.0 72 2.3 NNW 19 30 10 16 - - 0.0
17/10:00am 11.2 7.5 8.1 81 1.5 N 17 28 9 15 - - 0.0
17/09:30am 10.8 8.1 8.9 88 0.9 NNW 13 19 7 10 - - 0.0
17/09:00am 8.9 6.9 8.5 97 0.2 NNW 9 13 5 7 - - 16.0
17/08:30am 7.6 5.8 7.3 98 0.1 NNW 6 9 3 5 - - 16.0
17/08:00am 7.3 5.5 7.2 99 0.0 NNW 6 7 3 4 - - 16.0
17/07:30am 7.0 5.9 6.9 99 0.0 NNW 2 4 1 2 - - 16.0
17/07:00am 6.7 5.9 6.6 99 0.0 CALM 0 4 0 2 - - 16.0
17/06:30am 6.6 5.8 6.5 99 0.0 CALM 0 4 0 2 - - 16.0
17/06:00am 6.7 5.2 6.6 99 0.0 NW 4 6 2 3 - - 16.0
17/05:30am 6.6 5.0 6.5 99 0.0 WNW 4 7 2 4 - - 16.0
17/05:00am 6.8 5.7 6.7 99 0.0 NW 2 4 1 2 - - 16.0
17/04:30am 6.6 4.7 6.5 99 0.0 NW 6 9 3 5 - - 16.0
17/04:00am 6.5 4.9 6.4 99 0.0 NNW 4 6 2 3 - - 16.0
17/03:30am 6.6 5.4 6.5 99 0.0 N 2 6 1 3 - - 16.0
17/03:00am 6.5 4.9 6.4 99 0.0 NW 4 6 2 3 - - 16.0
17/02:30am 6.4 5.2 6.3 99 0.0 E 2 4 1 2 - - 16.0
17/02:00am 6.4 4.7 6.1 98 0.1 ENE 4 6 2 3 - - 16.0
17/01:30am 6.3 4.6 6.0 98 0.1 E 4 4 2 2 - - 16.0
17/01:00am 6.6 5.4 6.3 98 0.1 E 2 4 1 2 - - 16.0
17/12:30am 6.7 5.9 6.4 98 0.1 CALM 0 0 0 0 - - 16.0
17/12:00am 6.4 5.5 6.1 98 0.1 CALM 0 0 0 0 - - 16.0
 
Date/Time
EST
Temp
°C
App
Temp
°C
Dew
Point
Rel
Hum
%
Delta-T
°C
Wind Press
QNH
hPa
Press
MSL
hPa
Rain
since 9 am
mm
Dir
 
Spd
km/h
Gust
km/h
Spd
kts
Gust
kts
16/11:30pm 6.0 5.0 5.7 98 0.1 CALM 0 0 0 0 - - 16.0
16/11:00pm 5.9 4.9 5.5 97 0.2 CALM 0 0 0 0 - - 16.0
16/10:30pm 6.4 5.5 6.0 97 0.2 CALM 0 0 0 0 - - 16.0
16/10:00pm 7.1 5.6 6.7 97 0.2 ESE 4 4 2 2 - - 15.8
16/09:30pm 7.2 6.4 6.6 96 0.3 CALM 0 0 0 0 - - 15.8
16/09:00pm 7.8 6.0 7.2 96 0.3 SSE 6 7 3 4 - - 15.8
16/08:30pm 8.0 7.0 7.2 95 0.4 SSW 2 4 1 2 - - 15.8
16/08:00pm 8.8 8.0 8.0 95 0.4 SE 2 4 1 2 - - 15.8
16/07:30pm 9.1 8.3 8.3 95 0.4 E 2 6 1 3 - - 15.8
16/07:00pm 9.2 8.6 7.6 90 0.8 CALM 0 4 0 2 - - 15.8
16/06:30pm 8.9 8.4 8.0 94 0.4 CALM 0 0 0 0 - - 15.8
16/06:00pm 9.1 8.2 7.9 92 0.6 SSW 2 4 1 2 - - 15.8
16/05:30pm 9.1 7.9 8.2 94 0.4 SSW 4 6 2 3 - - 15.8
16/05:00pm 9.0 7.5 8.4 96 0.3 S 6 9 3 5 - - 15.8
16/04:30pm 9.0 7.4 8.2 95 0.4 ESE 6 9 3 5 - - 15.0
16/04:00pm 9.1 7.4 8.3 95 0.4 E 7 9 4 5 - - 12.8
16/03:30pm 9.3 8.1 8.2 93 0.5 SE 4 6 2 3 - - 9.4
16/03:00pm 9.6 8.8 8.2 91 0.7 SSE 2 6 1 3 - - 7.0
16/02:30pm 10.0 9.3 8.4 90 0.8 WNW 2 7 1 4 - - 5.0
16/02:00pm 10.2 8.5 8.3 88 0.9 SSW 7 11 4 6 - - 2.8
16/01:30pm 11.3 11.0 8.7 84 1.3 CALM 0 0 0 0 - - 1.6
16/01:00pm 11.9 10.1 7.2 73 2.3 SSW 6 9 3 5 - - 0.0
16/12:30pm 12.9 11.0 6.7 66 3.0 SE 6 7 3 4 - - 0.0
16/12:00pm 13.1 10.6 6.5 64 3.2 SSE 9 13 5 7 - - 0.0
16/11:30am 12.8 10.5 5.9 63 3.2 SSE 7 15 4 8 - - 0.0
16/11:00am 12.2 9.7 6.7 69 2.6 SSE 9 13 5 7 - - 0.0
16/10:30am 11.5 9.3 6.0 69 2.6 SSE 7 11 4 6 - - 0.0
16/10:00am 11.8 10.4 7.1 73 2.3 ESE 4 7 2 4 - - 0.0
16/09:30am 10.3 8.4 6.5 77 1.8 ESE 6 9 3 5 - - 0.0
16/09:00am 9.9 8.1 7.0 82 1.4 ESE 6 9 3 5 - - 0.0
16/08:30am 9.5 7.4 5.9 78 1.6 SE 6 9 3 5 - - 0.0
16/08:00am 9.1 7.0 5.8 80 1.5 SE 6 9 3 5 - - 0.0
16/07:30am 8.3 6.7 6.3 87 0.9 SE 4 7 2 4 - - 0.0
16/07:00am 7.9 6.5 5.7 86 1.0 ESE 2 4 1 2 - - 0.0
16/06:30am 7.5 5.7 5.5 87 0.9 SE 4 4 2 2 - - 0.0
16/06:00am 7.3 5.9 5.4 88 0.8 E 2 4 1 2 - - 0.0
16/05:30am 7.4 5.6 5.5 88 0.8 E 4 6 2 3 - - 0.0
16/05:00am 7.2 6.1 5.3 88 0.8 CALM 0 0 0 0 - - 0.0
16/04:30am 7.4 6.0 5.4 87 0.9 E 2 4 1 2 - - 0.0
16/04:00am 7.5 6.1 5.3 86 1.0 ENE 2 6 1 3 - - 0.0
16/03:30am 7.8 6.8 5.6 86 1.0 CALM 0 2 0 1 - - 0.0
16/03:00am 8.1 7.1 5.7 85 1.1 CALM 0 0 0 0 - - 0.0
16/02:30am 8.3 6.9 5.6 83 1.2 ENE 2 4 1 2 - - 0.0
16/02:00am 8.5 7.2 5.8 83 1.2 ESE 2 4 1 2 - - 0.0
16/01:30am 8.6 6.9 5.7 82 1.3 ENE 4 4 2 2 - - 0.0
16/01:00am 8.5 7.1 5.6 82 1.3 ENE 2 4 1 2 - - 0.0
16/12:30am 8.6 7.6 5.5 81 1.4 CALM 0 0 0 0 - - 0.0
16/12:00am 8.7 7.7 5.4 80 1.5 CALM 0 0 0 0 - - 0.0
 
Date/Time
EST
Temp
°C
App
Temp
°C
Dew
Point
Rel
Hum
%
Delta-T
°C
Wind Press
QNH
hPa
Press
MSL
hPa
Rain
since 9 am
mm
Dir
 
Spd
km/h
Gust
km/h
Spd
kts
Gust
kts
15/11:30pm 9.0 7.8 4.8 75 1.9 CALM 0 0 0 0 - - 0.0
15/11:00pm 9.2 7.7 5.2 76 1.8 W 2 4 1 2 - - 0.0
15/10:30pm 9.8 7.9 4.8 71 2.2 NW 4 6 2 3 - - 0.0
15/10:00pm 10.2 8.3 5.0 70 2.3 NW 4 7 2 4 - - 0.0
15/09:30pm 10.3 8.1 5.1 70 2.4 NW 6 7 3 4 - - 0.0
15/09:00pm 10.5 8.7 5.5 71 2.3 N 4 4 2 2 - - 0.0
15/08:30pm 10.4 8.2 5.2 70 2.4 NNW 6 7 3 4 - - 0.0
15/08:00pm 10.8 8.9 5.1 68 2.6 NW 4 4 2 2 - - 0.0
15/07:30pm 11.0 8.6 5.3 68 2.6 NW 7 11 4 6 - - 0.0
15/07:00pm 10.9 9.2 6.1 72 2.2 NW 4 7 2 4 - - 0.0
15/06:30pm 10.9 8.8 6.6 75 2.0 N 7 11 4 6 - - 0.0
15/06:00pm 11.4 8.7 5.7 68 2.6 NW 9 13 5 7 - - 0.0
15/05:30pm 12.2 9.1 5.6 64 3.1 NW 11 17 6 9 - - 0.0
15/05:00pm 12.8 9.5 6.2 64 3.1 NNW 13 17 7 9 - - 0.0
15/04:30pm 13.5 9.6 5.4 58 3.8 NW 15 20 8 11 - - 0.0
15/04:00pm 14.4 10.5 5.5 55 4.2 NNW 15 24 8 13 - - 0.0
15/03:30pm 14.9 10.4 4.3 49 4.9 NNW 17 24 9 13 - - 0.0
15/03:00pm 15.6 12.7 2.4 41 5.9 NNW 7 13 4 7 - - 0.0
15/02:30pm 15.5 11.9 2.7 42 5.7 N 11 17 6 9 - - 0.0
15/02:00pm 14.7 11.7 2.3 43 5.5 NW 7 13 4 7 - - 0.0
15/01:30pm 15.2 11.5 0.2 36 6.4 N 9 15 5 8 - - 0.0
15/01:00pm 15.0 11.2 1.9 41 5.8 NNW 11 15 6 8 - - 0.0
15/12:30pm 14.4 11.0 3.8 49 4.8 N 11 17 6 9 - - 0.0
15/12:00pm 14.3 11.9 2.2 44 5.3 S 4 7 2 4 - - 0.0
15/11:30am 12.9 10.0 1.6 46 4.8 S 6 9 3 5 - - 0.0
15/11:00am 12.9 9.9 0.6 43 5.2 SSE 6 11 3 6 - - 0.0
15/10:30am 12.4 9.3 1.4 47 4.7 SE 7 13 4 7 - - 0.0
15/10:00am 11.4 7.4 0.5 47 4.5 SE 11 17 6 9 - - 0.0
15/09:30am 10.5 6.2 1.3 53 3.8 SE 13 19 7 10 - - 0.0

Other Formats:

Comma delimited format used in spreadsheet applications
http://www.bom.gov.au/fwo/IDT60801/IDT60801.94969.axf

JavaScript Object Notation format (JSON) in row-major order
http://www.bom.gov.au/fwo/IDT60801/IDT60801.94969.json